Time;durP1;ratioP1;P1;durP2;ratioP2;P2;SDS_P1;SDS_P2;PMS_P1;PMS_P2;Temp;Humidity;BMP_temperature;BMP_pressure;BME280_temperature;BME280_humidity;BME280_pressure;Samples;Min_cycle;Max_cycle;Signal;HPM_P1;HPM_P2
2021/10/13 00:01:06;;;;;;;6.85;4.25;;;8.30;99.90;;;;;;4993587;28;20031;-50
2021/10/13 00:03:32;;;;;;;4.55;4.10;;;8.30;99.90;;;;;;4993624;28;20404;-43
2021/10/13 00:05:57;;;;;;;6.45;4.30;;;8.30;99.90;;;;;;4993893;28;20026;-45
2021/10/13 00:08:23;;;;;;;5.22;4.03;;;8.20;99.90;;;;;;4991675;28;20086;-43
2021/10/13 00:10:48;;;;;;;5.68;3.92;;;8.20;99.90;;;;;;4992515;28;20068;-48
2021/10/13 00:13:14;;;;;;;4.53;4.10;;;8.20;99.90;;;;;;4993756;28;20026;-40
2021/10/13 00:15:41;;;;;;;6.07;4.13;;;8.20;99.90;;;;;;4993377;28;20034;-45
2021/10/13 00:18:06;;;;;;;5.05;4.28;;;8.20;99.90;;;;;;4992883;28;20033;-44
2021/10/13 00:20:32;;;;;;;6.78;4.50;;;8.10;99.90;;;;;;4993451;28;20106;-42
2021/10/13 00:22:58;;;;;;;5.28;4.07;;;8.00;99.90;;;;;;4993353;28;20056;-45
2021/10/13 00:25:23;;;;;;;12.02;3.97;;;8.00;99.90;;;;;;4993235;28;20403;-42
2021/10/13 00:27:50;;;;;;;7.78;4.47;;;7.90;99.90;;;;;;4992367;28;20049;-44
2021/10/13 00:30:15;;;;;;;7.35;4.63;;;7.90;99.90;;;;;;4993010;28;20068;-43
2021/10/13 00:32:41;;;;;;;4.88;4.47;;;7.80;99.90;;;;;;4992424;28;20022;-44
2021/10/13 00:35:07;;;;;;;7.70;4.30;;;7.80;99.90;;;;;;4992999;28;20423;-43
2021/10/13 00:37:32;;;;;;;4.45;4.05;;;7.70;99.90;;;;;;4992059;28;20038;-46
2021/10/13 00:39:58;;;;;;;5.57;4.47;;;7.70;99.90;;;;;;4993064;28;20439;-42
2021/10/13 00:42:23;;;;;;;6.68;4.10;;;7.70;99.90;;;;;;4993315;28;20037;-45
2021/10/13 00:44:48;;;;;;;9.00;4.80;;;7.70;99.90;;;;;;4992526;28;20080;-39
2021/10/13 00:47:14;;;;;;;7.28;4.93;;;7.70;99.90;;;;;;4991791;28;20019;-46
2021/10/13 00:49:40;;;;;;;7.05;4.45;;;7.80;99.90;;;;;;4992464;28;20484;-45
2021/10/13 00:52:06;;;;;;;5.72;4.63;;;7.70;99.90;;;;;;4992357;28;20109;-42
2021/10/13 00:54:32;;;;;;;5.82;3.75;;;7.70;99.90;;;;;;4992484;28;20029;-45
2021/10/13 00:56:57;;;;;;;8.77;4.10;;;7.60;99.90;;;;;;4991500;28;20030;-46
2021/10/13 00:59:23;;;;;;;4.57;3.95;;;7.70;99.90;;;;;;4992192;28;20110;-42
2021/10/13 01:02:06;;;;;;;4.78;4.30;;;7.60;99.90;;;;;;4992367;28;20046;-44
2021/10/13 01:04:52;;;;;;;7.95;3.85;;;7.60;99.90;;;;;;4992157;28;20483;-49
2021/10/13 01:07:58;;;;;;;3.47;3.17;;;7.50;99.90;;;;;;4991675;28;20437;-45
2021/10/13 01:10:40;;;;;;;4.35;3.95;;;7.50;99.90;;;;;;4957430;28;20039;-49
2021/10/13 01:13:12;;;;;;;4.00;3.50;;;7.50;99.90;;;;;;4992138;28;20027;-45
2021/10/13 01:15:59;;;;;;;7.95;3.63;;;7.50;99.90;;;;;;4992025;28;20030;-44
2021/10/13 01:18:32;;;;;;;4.10;3.47;;;7.40;99.90;;;;;;4991346;28;20025;-44
2021/10/13 01:21:33;;;;;;;4.82;4.30;;;7.40;99.90;;;;;;4992044;28;20037;-48
2021/10/13 01:24:20;;;;;;;5.45;4.18;;;7.40;99.90;;;;;;4991900;28;20034;-44
2021/10/13 01:26:54;;;;;;;5.25;4.25;;;7.30;99.90;;;;;;4989761;28;20034;-44
2021/10/13 01:29:21;;;;;;;4.05;3.65;;;7.30;99.90;;;;;;4991787;28;20113;-45
2021/10/13 01:32:00;;;;;;;5.32;3.17;;;7.30;99.90;;;;;;4991724;28;20436;-45
2021/10/13 01:34:28;;;;;;;4.93;4.07;;;7.30;99.90;;;;;;4991830;28;20348;-49
2021/10/13 01:37:05;;;;;;;5.03;4.13;;;7.20;99.90;;;;;;4991170;28;20030;-45
2021/10/13 01:39:31;;;;;;;8.20;4.38;;;7.30;99.90;;;;;;4990683;28;20026;-45
2021/10/13 01:41:59;;;;;;;12.95;4.07;;;7.30;99.90;;;;;;4991430;28;20113;-44
2021/10/13 01:44:28;;;;;;;7.45;4.28;;;7.30;99.90;;;;;;4991356;28;20484;-43
2021/10/13 01:46:53;;;;;;;5.70;4.30;;;7.40;99.90;;;;;;4990787;28;20061;-44
2021/10/13 01:49:20;;;;;;;8.02;4.38;;;7.40;99.90;;;;;;4991460;28;20026;-46
2021/10/13 01:51:48;;;;;;;4.63;4.10;;;7.50;99.90;;;;;;4991361;28;20030;-47
2021/10/13 01:54:15;;;;;;;3.92;3.60;;;7.50;99.90;;;;;;4991386;28;20061;-42
2021/10/13 01:56:42;;;;;;;4.95;4.13;;;7.50;99.90;;;;;;4990519;28;20041;-48
2021/10/13 01:59:14;;;;;;;3.83;3.40;;;7.50;99.90;;;;;;4991037;28;20038;-47
2021/10/13 02:01:42;;;;;;;4.68;3.75;;;7.50;99.90;;;;;;4991178;28;20089;-45
2021/10/13 02:04:09;;;;;;;3.85;3.53;;;7.40;99.90;;;;;;4991420;28;20022;-50
2021/10/13 02:06:37;;;;;;;5.95;3.20;;;7.50;99.90;;;;;;4990362;28;20062;-45
2021/10/13 02:09:04;;;;;;;4.32;3.08;;;7.50;99.90;;;;;;4989997;28;20022;-42
2021/10/13 02:11:31;;;;;;;3.17;2.85;;;7.50;99.90;;;;;;4990300;28;20022;-46
2021/10/13 02:14:05;;;;;;;4.35;3.45;;;7.50;99.90;;;;;;4991142;28;20126;-43
2021/10/13 02:16:33;;;;;;;5.18;3.58;;;7.50;99.90;;;;;;4990449;28;20035;-44
2021/10/13 02:19:03;;;;;;;4.63;3.05;;;7.50;99.90;;;;;;4991428;28;20026;-45
2021/10/13 02:21:30;;;;;;;4.55;3.10;;;7.50;99.90;;;;;;4991187;28;20026;-47
2021/10/13 02:23:58;;;;;;;4.60;3.00;;;7.50;99.90;;;;;;4990946;28;20080;-39
2021/10/13 02:26:30;;;;;;;3.00;2.80;;;7.50;99.90;;;;;;4989052;28;20034;-48
2021/10/13 02:29:04;;;;;;;4.90;3.33;;;7.50;99.90;;;;;;4990994;28;20094;-45
2021/10/13 02:31:31;;;;;;;3.55;3.25;;;7.60;99.90;;;;;;4991007;28;20030;-48
2021/10/13 02:33:56;;;;;;;7.50;4.47;;;7.60;99.90;;;;;;4990893;28;20038;-43
2021/10/13 02:36:22;;;;;;;4.05;3.50;;;7.60;99.90;;;;;;4988988;28;20026;-42
2021/10/13 02:38:47;;;;;;;8.05;4.38;;;7.60;99.90;;;;;;4990741;28;20038;-45
2021/10/13 02:41:13;;;;;;;5.30;4.57;;;7.60;99.90;;;;;;4990856;28;20078;-45
2021/10/13 02:43:39;;;;;;;5.13;4.20;;;7.60;99.90;;;;;;4990777;28;20027;-49
2021/10/13 02:46:31;;;;;;;4.78;4.28;;;7.50;99.90;;;;;;4990670;28;20034;-44
2021/10/13 02:49:17;;;;;;;5.65;4.45;;;7.50;99.90;;;;;;4962705;28;20046;-46
2021/10/13 02:51:56;;;;;;;8.48;5.03;;;7.60;99.90;;;;;;4990556;28;20077;-44
2021/10/13 02:54:45;;;;;;;5.82;5.20;;;7.60;99.90;;;;;;4990830;28;20085;-43
2021/10/13 02:57:11;;;;;;;10.02;6.20;;;7.70;99.90;;;;;;4963100;28;20040;-45
2021/10/13 02:59:42;;;;;;;7.80;6.07;;;7.60;99.90;;;;;;4994654;28;20022;-44
2021/10/13 03:02:15;;;;;;;8.15;6.07;;;7.70;99.90;;;;;;4994737;28;20463;-43
2021/10/13 03:04:48;;;;;;;9.48;5.80;;;7.70;99.90;;;;;;4994631;28;20030;-44
2021/10/13 03:07:21;;;;;;;10.88;6.10;;;7.80;99.90;;;;;;4994141;28;20589;-41
2021/10/13 03:09:54;;;;;;;7.75;5.53;;;7.70;99.90;;;;;;4993800;28;20595;-47
2021/10/13 03:12:22;;;;;;;8.25;6.28;;;7.60;99.90;;;;;;4994740;28;20019;-44
2021/10/13 03:14:50;;;;;;;9.00;6.03;;;7.50;99.90;;;;;;4994672;28;20031;-46
2021/10/13 03:17:18;;;;;;;10.88;5.72;;;7.40;99.90;;;;;;4993245;28;20376;-43
2021/10/13 03:19:45;;;;;;;8.63;5.97;;;7.30;99.90;;;;;;4993582;28;20061;-45
2021/10/13 03:22:13;;;;;;;11.57;7.43;;;7.30;99.90;;;;;;4995253;28;20034;-44
2021/10/13 03:24:40;;;;;;;10.23;6.28;;;7.40;99.90;;;;;;4993707;28;20113;-46
2021/10/13 03:27:05;;;;;;;6.80;6.10;;;7.40;99.90;;;;;;4995696;28;20552;-46
2021/10/13 03:29:31;;;;;;;9.90;6.45;;;7.40;99.90;;;;;;4996071;28;20030;-44
2021/10/13 03:31:57;;;;;;;10.65;6.88;;;7.40;99.90;;;;;;4994340;28;20524;-44
2021/10/13 03:34:22;;;;;;;16.88;7.70;;;7.40;99.90;;;;;;4994032;28;20117;-44
2021/10/13 03:36:49;;;;;;;12.55;6.57;;;7.50;99.90;;;;;;4993431;28;20026;-46
2021/10/13 03:39:17;;;;;;;9.63;6.78;;;7.60;99.90;;;;;;4994114;28;20023;-42
2021/10/13 03:41:43;;;;;;;15.75;7.53;;;7.70;99.90;;;;;;4994136;28;20022;-43
2021/10/13 03:44:09;;;;;;;9.07;7.30;;;7.70;99.90;;;;;;4994318;28;20026;-41
2021/10/13 03:46:35;;;;;;;10.05;7.50;;;7.70;99.90;;;;;;4994229;28;20033;-43
2021/10/13 03:49:01;;;;;;;13.27;7.47;;;7.70;99.90;;;;;;4994868;28;20022;-46
2021/10/13 03:51:27;;;;;;;16.52;8.57;;;7.60;99.90;;;;;;4994530;28;20078;-47
2021/10/13 03:53:52;;;;;;;12.93;8.38;;;7.60;99.90;;;;;;4994557;28;20424;-48
2021/10/13 03:56:18;;;;;;;13.55;8.80;;;7.60;99.90;;;;;;4993764;28;20042;-44
2021/10/13 03:58:45;;;;;;;13.48;8.25;;;7.70;99.90;;;;;;4993712;28;20081;-44
2021/10/13 04:01:12;;;;;;;10.82;8.45;;;7.60;99.90;;;;;;4994362;28;20027;-45
2021/10/13 04:03:38;;;;;;;9.48;8.00;;;7.70;99.90;;;;;;4993845;28;20030;-43
2021/10/13 04:06:04;;;;;;;11.32;8.32;;;7.80;99.90;;;;;;4993544;28;20146;-44
2021/10/13 04:08:30;;;;;;;11.93;9.18;;;7.80;99.90;;;;;;4992380;28;20117;-42
2021/10/13 04:10:55;;;;;;;13.75;9.40;;;7.80;99.90;;;;;;4992920;28;20022;-42
2021/10/13 04:13:21;;;;;;;11.88;8.32;;;7.80;99.90;;;;;;4993860;28;20077;-45
2021/10/13 04:15:47;;;;;;;15.80;8.65;;;7.90;99.90;;;;;;4993540;28;20034;-45
2021/10/13 04:18:12;;;;;;;14.57;8.32;;;7.90;99.90;;;;;;4991580;28;20073;-44
2021/10/13 04:20:38;;;;;;;12.80;8.45;;;7.90;99.90;;;;;;4993592;28;20027;-43
2021/10/13 04:23:03;;;;;;;18.40;9.45;;;7.80;99.90;;;;;;4993675;28;20030;-44
2021/10/13 04:25:29;;;;;;;14.65;8.93;;;7.80;99.90;;;;;;4993607;28;20022;-42
2021/10/13 04:27:54;;;;;;;13.57;8.70;;;7.90;99.90;;;;;;4993137;28;20120;-47
2021/10/13 04:30:20;;;;;;;20.90;8.73;;;7.90;99.90;;;;;;4993610;28;20047;-43
2021/10/13 04:32:45;;;;;;;15.00;9.02;;;8.00;99.90;;;;;;4993233;28;20018;-50
2021/10/13 04:35:11;;;;;;;15.02;9.77;;;8.00;99.90;;;;;;4991650;28;20054;-44
2021/10/13 04:37:39;;;;;;;14.70;9.57;;;8.10;99.90;;;;;;5007520;23;20046;-44
2021/10/13 04:40:06;;;;;;;15.25;9.65;;;8.10;99.90;;;;;;4991352;28;20033;-47
2021/10/13 04:42:32;;;;;;;18.52;9.60;;;8.10;99.90;;;;;;4992876;28;20023;-46
2021/10/13 04:44:57;;;;;;;15.57;9.70;;;8.00;99.90;;;;;;4992795;28;20042;-50
2021/10/13 04:47:23;;;;;;;13.18;9.55;;;8.00;99.90;;;;;;4990516;28;20022;-48
2021/10/13 04:49:48;;;;;;;19.73;10.38;;;8.10;99.90;;;;;;4992376;28;20030;-45
2021/10/13 04:52:14;;;;;;;15.27;8.95;;;8.00;99.90;;;;;;4992506;28;20310;-48
2021/10/13 04:54:40;;;;;;;15.38;9.43;;;8.00;99.90;;;;;;4992361;28;20030;-45
2021/10/13 04:57:06;;;;;;;17.45;10.40;;;8.10;99.90;;;;;;4991654;28;20027;-48
2021/10/13 04:59:31;;;;;;;15.23;10.30;;;8.10;99.90;;;;;;4992412;28;20022;-47
2021/10/13 05:01:57;;;;;;;14.15;9.95;;;8.20;99.90;;;;;;4992738;28;20027;-46
2021/10/13 05:04:22;;;;;;;13.48;8.90;;;8.10;99.90;;;;;;4992140;28;20049;-46
2021/10/13 05:06:48;;;;;;;17.77;8.68;;;8.20;99.90;;;;;;4991430;28;20030;-45
2021/10/13 05:09:15;;;;;;;14.85;8.93;;;8.20;99.90;;;;;;4991869;28;20484;-46
2021/10/13 05:11:41;;;;;;;16.42;9.45;;;8.20;99.90;;;;;;4990840;28;20393;-46
2021/10/13 05:14:06;;;;;;;15.98;9.60;;;8.10;99.90;;;;;;4992111;28;20045;-46
2021/10/13 05:16:32;;;;;;;15.48;10.40;;;8.20;99.90;;;;;;4991375;28;20080;-50
2021/10/13 05:18:58;;;;;;;25.25;11.23;;;8.20;99.90;;;;;;4991719;28;20053;-43
2021/10/13 05:21:24;;;;;;;16.98;10.52;;;8.30;99.90;;;;;;4991958;28;20153;-44
2021/10/13 05:23:49;;;;;;;16.40;10.00;;;8.30;99.90;;;;;;4991750;28;20117;-44
2021/10/13 05:26:15;;;;;;;24.45;11.35;;;8.30;99.90;;;;;;4991504;28;20026;-43
2021/10/13 05:28:40;;;;;;;17.98;10.05;;;8.30;99.90;;;;;;4991566;28;20539;-44
2021/10/13 05:31:06;;;;;;;14.88;10.93;;;8.20;99.90;;;;;;4991705;28;20034;-45
2021/10/13 05:33:31;;;;;;;16.95;10.38;;;8.20;99.90;;;;;;4991627;28;20388;-43
2021/10/13 05:35:57;;;;;;;14.38;10.45;;;8.10;99.90;;;;;;4990347;28;20037;-43
2021/10/13 05:38:22;;;;;;;15.52;9.75;;;8.10;99.90;;;;;;4990516;28;20038;-47
2021/10/13 05:40:48;;;;;;;14.05;9.95;;;8.00;99.90;;;;;;4991493;28;20161;-44
2021/10/13 05:43:14;;;;;;;21.38;10.23;;;8.00;99.90;;;;;;4991489;28;20030;-45
2021/10/13 05:45:40;;;;;;;14.68;10.38;;;8.00;99.90;;;;;;4991292;28;20049;-48
2021/10/13 05:48:05;;;;;;;19.60;11.35;;;7.90;99.90;;;;;;4990621;28;20029;-45
2021/10/13 05:50:31;;;;;;;21.58;10.57;;;7.90;99.90;;;;;;4991700;28;20023;-44
2021/10/13 05:52:56;;;;;;;18.92;10.40;;;7.90;99.90;;;;;;4990092;28;20030;-44
2021/10/13 05:55:22;;;;;;;17.10;10.60;;;7.90;99.90;;;;;;4991202;28;20138;-46
2021/10/13 05:57:47;;;;;;;21.77;11.30;;;7.80;99.90;;;;;;4990815;28;20494;-44
2021/10/13 06:00:13;;;;;;;19.40;11.75;;;7.90;99.90;;;;;;4991449;28;20050;-44
2021/10/13 06:02:39;;;;;;;15.85;10.50;;;8.00;99.90;;;;;;4987376;28;20093;-46
2021/10/13 06:05:05;;;;;;;21.75;12.75;;;7.90;99.90;;;;;;4971870;28;20488;-48
2021/10/13 06:07:31;;;;;;;19.98;12.00;;;8.00;99.90;;;;;;4978655;28;20484;-48
2021/10/13 06:09:57;;;;;;;23.65;12.32;;;8.00;99.90;;;;;;4991093;28;20076;-44
2021/10/13 06:12:22;;;;;;;20.90;11.07;;;8.00;99.90;;;;;;4989621;28;20502;-45
2021/10/13 06:14:48;;;;;;;17.25;11.00;;;8.00;99.90;;;;;;4990902;28;20042;-49
2021/10/13 06:17:13;;;;;;;19.17;11.95;;;8.10;99.90;;;;;;4990571;28;20049;-44
2021/10/13 06:19:39;;;;;;;20.20;11.82;;;8.20;99.90;;;;;;4990905;28;20037;-45
2021/10/13 06:22:04;;;;;;;22.70;11.65;;;8.20;99.90;;;;;;4990843;28;20041;-45
2021/10/13 06:24:30;;;;;;;15.23;10.00;;;8.30;99.90;;;;;;4991061;28;20042;-45
2021/10/13 06:26:55;;;;;;;16.63;10.15;;;8.30;99.90;;;;;;4989653;28;20035;-46
2021/10/13 06:29:21;;;;;;;19.40;10.73;;;8.30;99.90;;;;;;4990591;28;20411;-48
2021/10/13 06:31:47;;;;;;;14.88;10.75;;;8.40;99.90;;;;;;4990017;28;20034;-47
2021/10/13 06:34:14;;;;;;;20.50;12.32;;;8.40;99.90;;;;;;4990975;28;20035;-48
2021/10/13 06:36:40;;;;;;;20.92;12.23;;;8.50;99.90;;;;;;4985281;28;20037;-47
2021/10/13 06:39:05;;;;;;;21.20;11.88;;;8.50;99.90;;;;;;4990542;28;20470;-46
2021/10/13 06:41:31;;;;;;;22.35;12.13;;;8.50;99.90;;;;;;4990849;28;20072;-44
2021/10/13 06:43:56;;;;;;;20.33;10.30;;;8.40;99.90;;;;;;4990964;28;20412;-46
2021/10/13 06:46:22;;;;;;;18.27;10.70;;;8.30;99.90;;;;;;4989963;28;20104;-47
2021/10/13 06:48:47;;;;;;;16.48;10.98;;;8.30;99.90;;;;;;4990638;28;20037;-47
2021/10/13 06:51:13;;;;;;;20.45;11.32;;;8.30;99.90;;;;;;4989393;28;20019;-44
2021/10/13 06:53:38;;;;;;;20.10;11.10;;;8.40;99.90;;;;;;4990678;28;20437;-48
2021/10/13 06:56:04;;;;;;;21.88;12.18;;;8.40;99.90;;;;;;4989412;28;20053;-43
2021/10/13 06:58:30;;;;;;;20.33;12.30;;;8.40;99.90;;;;;;4988476;28;20069;-45
2021/10/13 07:00:55;;;;;;;20.05;13.02;;;8.50;99.90;;;;;;4989323;28;20030;-46
2021/10/13 07:03:21;;;;;;;18.17;12.20;;;8.60;99.90;;;;;;4990502;28;20109;-49
2021/10/13 07:05:47;;;;;;;20.88;12.77;;;8.50;99.90;;;;;;4990847;28;20037;-45
2021/10/13 07:08:12;;;;;;;22.80;13.20;;;8.60;99.90;;;;;;4990315;28;20307;-44
2021/10/13 07:10:38;;;;;;;24.65;12.73;;;8.70;99.90;;;;;;4990628;28;20034;-47
2021/10/13 07:13:03;;;;;;;24.48;12.32;;;8.80;99.90;;;;;;4989343;28;20022;-47
2021/10/13 07:15:29;;;;;;;24.33;14.65;;;8.80;99.90;;;;;;4990503;28;20101;-45
2021/10/13 07:17:54;;;;;;;20.00;13.43;;;8.90;99.90;;;;;;4989659;28;20026;-45
2021/10/13 07:20:20;;;;;;;27.50;15.02;;;9.00;99.90;;;;;;4990371;28;20034;-44
2021/10/13 07:22:45;;;;;;;23.73;14.27;;;8.90;99.90;;;;;;4990336;28;20483;-47
2021/10/13 07:25:11;;;;;;;21.52;14.80;;;9.00;99.90;;;;;;4990257;28;20030;-49
2021/10/13 07:27:37;;;;;;;26.05;14.45;;;9.10;99.90;;;;;;4989792;28;20436;-46
2021/10/13 07:30:05;;;;;;;20.27;14.32;;;9.20;99.90;;;;;;4990301;28;20065;-46
2021/10/13 07:32:34;;;;;;;22.45;12.23;;;9.20;99.90;;;;;;4990345;28;20113;-46
2021/10/13 07:35:00;;;;;;;19.40;12.88;;;9.20;99.90;;;;;;4990040;28;20101;-47
2021/10/13 07:37:27;;;;;;;21.00;14.20;;;9.20;99.90;;;;;;4989393;28;20109;-48
2021/10/13 07:39:54;;;;;;;19.92;13.63;;;9.20;99.90;;;;;;4990314;28;20385;-44
2021/10/13 07:42:19;;;;;;;24.52;15.93;;;9.20;99.90;;;;;;4992379;28;20019;-44
2021/10/13 07:44:45;;;;;;;24.52;14.93;;;9.30;99.90;;;;;;4993487;28;20052;-45
2021/10/13 07:47:11;;;;;;;25.15;16.73;;;9.40;99.90;;;;;;4992544;28;20044;-44
2021/10/13 07:49:38;;;;;;;184.07;113.38;;;9.40;99.90;;;;;;4993395;28;20287;-44
2021/10/13 07:52:05;;;;;;;30.08;18.85;;;9.50;99.90;;;;;;4993873;28;20365;-45
2021/10/13 07:54:32;;;;;;;26.35;16.65;;;9.70;99.90;;;;;;4993566;28;20484;-43
2021/10/13 07:56:57;;;;;;;22.23;14.95;;;9.80;99.90;;;;;;4992852;28;20030;-45
2021/10/13 07:59:23;;;;;;;25.10;16.58;;;9.80;99.90;;;;;;4993226;28;20018;-44
2021/10/13 08:01:49;;;;;;;26.33;16.48;;;9.90;99.90;;;;;;4991937;28;20395;-46
2021/10/13 08:04:15;;;;;;;33.45;18.73;;;10.00;99.90;;;;;;4993277;28;20443;-44
2021/10/13 08:06:40;;;;;;;31.88;17.35;;;10.10;99.90;;;;;;4992503;28;20022;-45
2021/10/13 08:09:06;;;;;;;24.40;16.90;;;10.20;99.90;;;;;;4993304;28;20027;-49
2021/10/13 08:11:31;;;;;;;31.65;17.95;;;10.20;99.90;;;;;;4993367;28;20049;-45
2021/10/13 08:13:58;;;;;;;26.08;15.63;;;10.30;99.90;;;;;;4991550;28;20643;-46
2021/10/13 08:16:24;;;;;;;23.65;15.68;;;10.20;99.90;;;;;;4992515;28;20365;-45
2021/10/13 08:18:49;;;;;;;26.55;15.50;;;10.20;99.90;;;;;;4991887;28;20033;-47
2021/10/13 08:21:15;;;;;;;27.42;16.77;;;10.10;99.90;;;;;;4991613;28;20041;-45
2021/10/13 08:23:40;;;;;;;23.85;15.43;;;10.10;99.90;;;;;;4992628;28;20026;-46
2021/10/13 08:26:06;;;;;;;26.90;16.55;;;10.20;99.90;;;;;;4992342;28;20030;-43
2021/10/13 08:28:32;;;;;;;28.63;16.67;;;10.20;99.90;;;;;;4992386;28;20026;-44
2021/10/13 08:30:58;;;;;;;25.70;16.35;;;10.20;99.90;;;;;;4987353;28;20023;-45
2021/10/13 08:33:23;;;;;;;26.67;16.77;;;10.20;99.90;;;;;;4982264;28;20026;-45
2021/10/13 08:35:49;;;;;;;25.35;17.17;;;10.20;99.90;;;;;;4991019;28;20120;-42
2021/10/13 08:38:15;;;;;;;25.67;16.65;;;10.20;99.90;;;;;;4991642;28;20053;-46
2021/10/13 08:40:41;;;;;;;29.85;17.92;;;10.20;99.90;;;;;;4990315;28;20031;-44
2021/10/13 08:43:08;;;;;;;31.48;17.50;;;10.20;99.90;;;;;;4989318;28;20459;-46
2021/10/13 08:45:36;;;;;;;32.90;18.15;;;10.10;99.90;;;;;;4990971;28;20031;-46
2021/10/13 08:48:04;;;;;;;26.80;16.50;;;10.20;99.90;;;;;;4990125;28;20019;-45
2021/10/13 08:50:31;;;;;;;25.98;16.92;;;10.20;99.90;;;;;;4990234;28;20396;-46
2021/10/13 08:53:08;;;;;;;22.27;15.55;;;10.20;99.90;;;;;;4991698;28;20026;-44
2021/10/13 08:55:35;;;;;;;28.75;16.60;;;10.20;99.90;;;;;;4992514;28;20514;-47
2021/10/13 08:58:10;;;;;;;28.05;17.30;;;10.30;99.90;;;;;;4991577;28;20037;-44
2021/10/13 09:00:36;;;;;;;24.13;16.73;;;10.40;99.90;;;;;;4992055;28;20062;-46
2021/10/13 09:03:02;;;;;;;26.75;17.13;;;10.30;99.90;;;;;;4992124;28;20158;-47
2021/10/13 09:05:28;;;;;;;29.05;16.90;;;10.40;99.90;;;;;;4990633;28;20084;-46
2021/10/13 09:07:56;;;;;;;25.85;16.42;;;10.40;99.90;;;;;;4991312;28;20062;-46
2021/10/13 09:10:34;;;;;;;29.08;18.67;;;10.40;99.90;;;;;;4991493;28;20053;-45
2021/10/13 09:13:02;;;;;;;24.42;16.25;;;10.40;99.90;;;;;;4991867;28;20018;-47
2021/10/13 09:15:29;;;;;;;30.65;17.17;;;10.50;99.90;;;;;;4991813;28;20026;-46
2021/10/13 09:17:58;;;;;;;28.30;17.05;;;10.40;99.90;;;;;;4991126;28;20052;-44
2021/10/13 09:20:38;;;;;;;20.63;15.25;;;10.50;99.90;;;;;;4991600;28;20407;-45
2021/10/13 09:23:16;;;;;;;33.28;18.88;;;10.50;99.90;;;;;;4992190;28;20022;-44
2021/10/13 09:25:59;;;;;;;25.50;16.65;;;10.60;99.90;;;;;;4991197;28;20022;-46
2021/10/13 09:28:24;;;;;;;26.58;16.08;;;10.80;99.90;;;;;;4989637;28;20031;-44
2021/10/13 09:30:50;;;;;;;31.30;16.83;;;11.00;99.90;;;;;;4991418;28;20498;-42
2021/10/13 09:33:18;;;;;;;19.33;14.65;;;11.30;99.90;;;;;;4991767;28;20026;-44
2021/10/13 09:35:49;;;;;;;20.10;14.07;;;11.40;99.90;;;;;;4991319;28;20038;-44
2021/10/13 09:38:21;;;;;;;28.27;14.80;;;11.50;99.90;;;;;;4990978;28;20038;-43
2021/10/13 09:40:49;;;;;;;20.25;14.52;;;11.60;99.90;;;;;;4991620;28;20108;-43
2021/10/13 09:43:46;;;;;;;22.52;15.02;;;11.60;99.90;;;;;;4991624;28;20477;-46
2021/10/13 09:46:14;;;;;;;26.67;15.43;;;11.50;99.90;;;;;;4964418;28;20137;-45
2021/10/13 09:48:42;;;;;;;29.77;16.35;;;11.50;99.90;;;;;;4991110;28;20026;-44
2021/10/13 09:51:20;;;;;;;20.40;13.60;;;11.40;99.90;;;;;;4991058;28;20030;-43
2021/10/13 09:53:47;;;;;;;18.70;13.02;;;11.30;99.90;;;;;;4991553;28;20030;-48
2021/10/13 09:56:33;;;;;;;24.85;13.40;;;11.40;99.90;;;;;;4991451;28;20154;-50
2021/10/13 09:59:15;;;;;;;20.00;12.40;;;11.60;99.90;;;;;;4991062;28;20053;-44
2021/10/13 10:01:44;;;;;;;18.45;12.05;;;11.70;99.90;;;;;;4991504;28;20031;-44
2021/10/13 10:04:13;;;;;;;20.20;12.40;;;11.80;99.90;;;;;;4991338;28;20030;-45
2021/10/13 10:06:40;;;;;;;19.25;9.93;;;12.00;99.90;;;;;;4990033;28;20030;-44
2021/10/13 10:09:06;;;;;;;18.63;10.80;;;12.00;99.90;;;;;;4991400;28;20054;-44
2021/10/13 10:11:39;;;;;;;16.70;11.35;;;12.10;99.90;;;;;;4990192;28;20014;-46
2021/10/13 10:14:26;;;;;;;20.10;12.43;;;12.20;99.90;;;;;;4991221;28;20023;-46
2021/10/13 10:16:51;;;;;;;16.90;12.05;;;12.20;99.90;;;;;;4990365;28;20061;-49
2021/10/13 10:19:22;;;;;;;17.08;11.77;;;12.20;99.90;;;;;;4990652;28;20486;-48
2021/10/13 10:21:55;;;;;;;17.13;11.82;;;12.20;99.90;;;;;;4991116;28;20395;-45
2021/10/13 10:24:29;;;;;;;15.93;9.18;;;12.10;99.90;;;;;;4991315;28;20018;-45
2021/10/13 10:27:23;;;;;;;12.80;8.75;;;12.10;99.90;;;;;;4989764;28;20026;-51
2021/10/13 10:30:07;;;;;;;13.40;9.80;;;11.90;99.90;;;;;;4990866;28;20428;-46
2021/10/13 10:32:34;;;;;;;12.70;9.40;;;11.80;99.90;;;;;;4991059;28;20061;-49
2021/10/13 10:35:03;;;;;;;12.43;8.50;;;11.80;99.90;;;;;;4991107;28;20030;-48
2021/10/13 10:37:41;;;;;;;9.55;7.10;;;12.00;99.90;;;;;;4990503;28;20066;-47
2021/10/13 10:40:35;;;;;;;10.68;7.43;;;12.20;99.90;;;;;;4991409;28;20496;-50
2021/10/13 10:43:04;;;;;;;19.67;10.93;;;12.10;99.90;;;;;;4989598;28;20125;-45
2021/10/13 10:45:50;;;;;;;21.00;13.30;;;12.20;99.90;;;;;;4990987;28;20097;-47
2021/10/13 10:48:16;;;;;;;;;;;12.00;99.90;;;;;;4991110;28;20113;-48
2021/10/13 10:50:43;;;;;;;;;;;11.80;99.90;;;;;;4991316;28;19987;-49
2021/10/13 10:53:17;;;;;;;12.98;8.35;;;11.70;99.90;;;;;;4990664;28;19916;-50
2021/10/13 10:55:45;;;;;;;12.18;8.63;;;11.60;99.90;;;;;;4990753;28;20114;-49
2021/10/13 10:58:22;;;;;;;14.18;9.20;;;11.60;99.90;;;;;;4991062;28;20030;-46
2021/10/13 11:00:58;;;;;;;14.43;9.68;;;11.60;99.90;;;;;;4991447;28;20027;-45
2021/10/13 11:03:27;;;;;;;16.30;9.57;;;11.60;99.90;;;;;;4990931;28;20054;-49
2021/10/13 11:05:54;;;;;;;15.50;10.30;;;11.70;99.90;;;;;;4990837;28;20031;-50
2021/10/13 11:08:20;;;;;;;11.18;7.90;;;11.70;99.90;;;;;;4990912;28;20024;-48
2021/10/13 11:10:46;;;;;;;16.98;8.90;;;11.70;99.90;;;;;;4991060;28;20031;-47
2021/10/13 11:13:11;;;;;;;15.85;10.02;;;11.80;99.90;;;;;;4990986;28;20029;-50
2021/10/13 11:15:39;;;;;;;11.68;9.25;;;11.80;99.90;;;;;;4990754;28;20058;-48
2021/10/13 11:18:13;;;;;;;13.15;8.52;;;11.90;99.90;;;;;;4994286;28;20026;-48
2021/10/13 11:20:38;;;;;;;13.38;7.28;;;12.00;99.90;;;;;;4994876;28;20068;-48
2021/10/13 11:23:06;;;;;;;10.70;6.32;;;12.10;99.90;;;;;;4994740;28;20036;-48
2021/10/13 11:25:32;;;;;;;20.27;14.43;;;12.20;99.90;;;;;;4994183;28;20031;-49
2021/10/13 11:28:09;;;;;;;30.65;16.25;;;12.10;99.90;;;;;;4994354;28;20169;-47
2021/10/13 11:30:39;;;;;;;9.88;6.25;;;12.20;99.90;;;;;;4994423;28;20022;-48
2021/10/13 11:33:07;;;;;;;10.48;5.55;;;12.30;99.90;;;;;;4994202;28;20022;-49
2021/10/13 11:35:33;;;;;;;10.30;5.53;;;12.30;99.90;;;;;;4992908;28;20061;-48
2021/10/13 11:37:59;;;;;;;11.10;5.18;;;12.30;99.90;;;;;;4993649;28;20411;-48
2021/10/13 11:40:26;;;;;;;7.07;4.68;;;12.40;99.90;;;;;;4994253;28;20027;-52
2021/10/13 11:42:56;;;;;;;9.93;4.30;;;12.50;99.90;;;;;;4994443;28;20046;-49
2021/10/13 11:45:22;;;;;;;8.15;4.82;;;12.50;99.90;;;;;;4984442;28;20031;-51
2021/10/13 11:47:48;;;;;;;8.82;4.53;;;12.50;99.90;;;;;;4987031;28;20041;-52
2021/10/13 11:50:22;;;;;;;7.22;3.92;;;12.50;99.90;;;;;;4988612;28;20015;-52
2021/10/13 11:52:53;;;;;;;4.78;4.05;;;12.60;99.90;;;;;;4977887;28;20157;-50
2021/10/13 11:55:20;;;;;;;8.68;4.47;;;12.80;99.90;;;;;;4985792;28;20462;-54
2021/10/13 11:57:51;;;;;;;8.48;4.60;;;12.60;99.90;;;;;;4992248;28;20386;-53
2021/10/13 12:00:19;;;;;;;6.63;3.63;;;12.50;99.90;;;;;;4991957;28;20034;-52
2021/10/13 12:03:06;;;;;;;6.03;3.85;;;12.40;99.90;;;;;;4992712;28;20019;-53
2021/10/13 12:05:44;;;;;;;7.97;3.92;;;12.30;99.90;;;;;;4992633;28;20041;-54
2021/10/13 12:08:12;;;;;;;8.77;3.65;;;12.20;99.90;;;;;;4990430;28;20089;-47
2021/10/13 12:10:50;;;;;;;5.35;3.58;;;12.10;99.90;;;;;;4992706;28;20476;-53
2021/10/13 12:13:18;;;;;;;4.75;3.78;;;12.00;99.90;;;;;;4992531;28;20058;-49
2021/10/13 12:15:46;;;;;;;12.40;5.07;;;11.90;99.90;;;;;;4993897;28;20396;-52
2021/10/13 12:18:20;;;;;;;7.43;5.55;;;11.80;99.90;;;;;;4973391;28;20037;-53
2021/10/13 12:20:48;;;;;;;7.60;4.78;;;11.80;99.90;;;;;;4980668;28;20387;-50
2021/10/13 12:23:22;;;;;;;7.18;5.63;;;11.70;99.90;;;;;;4992702;28;20503;-54
2021/10/13 12:25:49;;;;;;;7.78;5.22;;;11.80;99.90;;;;;;4992442;28;20034;-52
2021/10/13 12:28:19;;;;;;;9.07;5.47;;;11.70;99.90;;;;;;4990495;28;20056;-56
2021/10/13 12:30:47;;;;;;;9.13;5.22;;;11.60;99.90;;;;;;4993341;28;20029;-55
2021/10/13 12:33:15;;;;;;;10.00;4.70;;;11.60;99.90;;;;;;4992357;28;20046;-56
2021/10/13 12:35:44;;;;;;;8.98;5.00;;;11.60;99.90;;;;;;4992961;28;20080;-56
2021/10/13 12:38:15;;;;;;;15.10;5.00;;;11.60;99.90;;;;;;4992245;28;20070;-52
2021/10/13 12:40:58;;;;;;;5.80;3.90;;;11.50;99.90;;;;;;4993108;28;20031;-53
2021/10/13 12:43:23;;;;;;;6.75;3.70;;;11.50;99.90;;;;;;4992937;28;20037;-47
2021/10/13 12:45:50;;;;;;;7.28;4.10;;;11.40;99.90;;;;;;4992362;28;20396;-48
2021/10/13 12:48:18;;;;;;;9.95;3.95;;;11.30;99.90;;;;;;4992611;28;20121;-46
2021/10/13 12:51:03;;;;;;;10.20;5.05;;;11.30;99.90;;;;;;4992437;28;20076;-47